Terminal Aerodrome Forecast
Issued by NWS Huntsville, AL

Home | Current Version | Previous Version | Text Only | Print | Product List | Glossary On
Versions: 1 2 3 4 5 6 7 8 9 10 11 12 13 14 15 16 17 18 19 20 21 22 23 24 25
000
FTUS44 KHUN 250520
TAFMSL
TAF
KMSL 250520Z 2506/2606 15009KT 4SM SHRA VCTS OVC040CB
     FM250900 18014KT 4SM -TSRA OVC020CB
      TEMPO 2509/2513 VRB10G25KT
     FM251300 24013KT 6SM -SHRA VCTS BKN025CB PROB30 2516/2520 -TSRA
     FM252000 24014G23KT 5SM BR BKN030
     FM260000 23012KT P6SM FEW050=

USA.gov is the U.S. government's official web portal to all federal, state and local government web resources and services.